Terminal Aerodrome Forecast
Issued by NWS Twin Cities, MN

Home | Current Version | Previous Version | Text Only | Print | Product List | Glossary On
Versions: 1 2 3 4 5 6 7 8 9 10 11 12 13 14 15 16 17 18 19 20 21 22 23 24 25 26 27
000
FTUS43 KMPX 222000 AAA
TAFMSP
TAF AMD
KMSP 222049Z 2221/2324 24007KT P6SM SKC
     FM230200 19004KT P6SM FEW250
     FM231600 18008KT P6SM SCT250
     FM232100 17011KT P6SM BKN200=

USA.gov is the U.S. government's official web portal to all federal, state and local government web resources and services.